createdAt,value
2023-03-30T00:05:04.582Z,15.00
2023-03-30T00:10:09.062Z,13.75
2023-03-30T00:15:14.098Z,16.50
2023-03-30T00:20:18.889Z,28.25
2023-03-30T00:25:24.617Z,19.75
2023-03-30T00:30:29.093Z,18.50
2023-03-30T00:35:33.500Z,17.00
2023-03-30T00:40:38.042Z,18.25
2023-03-30T00:45:42.670Z,14.50
2023-03-30T00:50:48.486Z,15.00
2023-03-30T00:55:54.341Z,12.75
2023-03-30T01:01:00.145Z,12.75
2023-03-30T01:06:06.627Z,16.00
2023-03-30T01:11:11.663Z,14.00
2023-03-30T01:16:36.338Z,12.75
2023-03-30T01:22:02.606Z,12.25
2023-03-30T01:27:32.253Z,17.00
2023-03-30T01:32:37.364Z,18.00
2023-03-30T01:37:44.984Z,20.50
2023-03-30T01:42:57.898Z,15.00
2023-03-30T01:48:22.713Z,14.75
2023-03-30T01:53:45.805Z,16.25
2023-03-30T01:58:52.673Z,21.75
2023-03-30T02:03:59.372Z,22.25
2023-03-30T02:09:04.797Z,25.50
2023-03-30T02:14:11.717Z,23.00
2023-03-30T02:19:17.057Z,22.00
2023-03-30T02:24:25.126Z,22.00
2023-03-30T02:29:29.818Z,26.00
2023-03-30T02:34:49.910Z,25.00
2023-03-30T02:40:22.481Z,23.25
2023-03-30T02:45:36.043Z,22.25
2023-03-30T02:50:47.006Z,22.00
2023-03-30T02:56:14.382Z,19.75
2023-03-30T03:01:37.743Z,18.50
2023-03-30T03:06:47.971Z,15.75
2023-03-30T03:11:53.657Z,15.75
2023-03-30T03:17:00.026Z,16.50
2023-03-30T03:22:10.582Z,15.25
2023-03-30T03:27:17.658Z,13.00
2023-03-30T03:33:00.978Z,16.00
2023-03-30T03:38:09.206Z,13.00
2023-03-30T03:43:14.564Z,12.75
2023-03-30T03:48:21.087Z,11.75
2023-03-30T03:53:29.014Z,8.75
2023-03-30T03:58:40.333Z,10.25
2023-03-30T04:03:45.262Z,13.75
2023-03-30T04:08:49.977Z,13.50
2023-03-30T04:14:00.669Z,11.25
2023-03-30T04:19:34.721Z,9.25
2023-03-30T04:24:51.786Z,10.75
2023-03-30T04:30:23.802Z,11.25
2023-03-30T04:35:46.018Z,12.00
2023-03-30T04:41:28.072Z,13.00
2023-03-30T04:46:52.175Z,8.50
2023-03-30T04:52:14.572Z,9.00
2023-03-30T04:57:48.918Z,8.00
2023-03-30T05:03:13.490Z,10.00
2023-03-30T05:08:34.985Z,10.75
2023-03-30T05:14:02.078Z,12.75
2023-03-30T05:19:23.086Z,10.75
2023-03-30T05:24:43.451Z,11.50
2023-03-30T05:30:10.778Z,9.50
2023-03-30T05:35:34.084Z,9.75
2023-03-30T05:40:56.272Z,20.25
2023-03-30T05:46:09.083Z,14.25
2023-03-30T05:51:33.550Z,14.00
2023-03-30T05:57:00.145Z,17.25
2023-03-30T06:02:21.205Z,14.25
2023-03-30T06:07:26.504Z,13.75
2023-03-30T06:12:32.378Z,14.00
2023-03-30T06:17:37.945Z,33.00
2023-03-30T06:22:46.007Z,44.25
2023-03-30T06:27:54.922Z,38.00
2023-03-30T06:32:59.613Z,33.50
2023-03-30T06:38:25.166Z,35.75
2023-03-30T06:43:32.123Z,34.50
2023-03-30T06:48:43.817Z,39.50
2023-03-30T06:54:26.105Z,34.00
2023-03-30T06:59:36.655Z,33.00
2023-03-30T07:04:59.159Z,33.00
2023-03-30T07:10:13.413Z,32.00
2023-03-30T07:15:18.281Z,30.25
2023-03-30T07:20:22.911Z,31.00
2023-03-30T07:25:50.140Z,27.75
2023-03-30T07:31:09.207Z,29.00
2023-03-30T07:36:17.573Z,29.00
2023-03-30T07:41:23.680Z,27.00
2023-03-30T07:46:32.886Z,27.75
2023-03-30T07:51:38.252Z,27.50
2023-03-30T07:56:56.802Z,26.00
2023-03-30T08:02:01.841Z,26.00
2023-03-30T08:07:22.098Z,25.50
2023-03-30T08:12:32.093Z,25.00
2023-03-30T08:17:37.393Z,24.00
2023-03-30T08:22:41.988Z,23.25
2023-03-30T08:27:46.279Z,22.00
2023-03-30T08:32:50.592Z,22.75
2023-03-30T08:37:55.296Z,21.00
2023-03-30T08:43:13.734Z,19.25
2023-03-30T08:48:23.621Z,19.00
2023-03-30T08:53:30.268Z,19.00
2023-03-30T08:58:46.508Z,19.00
2023-03-30T09:04:08.804Z,18.75
2023-03-30T09:09:14.582Z,18.25
2023-03-30T09:14:29.556Z,19.00
2023-03-30T09:19:37.375Z,19.00
2023-03-30T09:24:42.488Z,17.00
2023-03-30T09:29:52.392Z,16.25
2023-03-30T09:34:59.462Z,16.00
